TA10 weather

Christus Spohn Hospital Kingsville Heliport
Kingsville, Texas, United States

Public forecast

Using degrees Fahrenheit for public forecast. Weather courtesy of forecast.io.

Closest aviation weather report (METAR) to Christus Spohn Hospital Kingsville Heliport

Closest report is Kingsville Naval Air Station, 2.4 nm (4.5 km) ENE. Retrieved 2019/12/16 06:56 UTC (11 minutes ago):

KNQI 160656Z AUTO 18016G23KT 9SM OVC025 24/20 A2973 RMK AO2 SLP063 T02440200

Closest aviation forecast (TAF) to Christus Spohn Hospital Kingsville Heliport

Forecast is more than 12 hours old.

Closest forecast is Kingsville Naval Air Station, 2.4 nm (4.5 km) ENE. Retrieved 2013/09/17 15:21 UTC (6 years ago):

TAF COR KNQI 171500Z 1715/1815 08010KT VCSH SCT025CB SCT045 BKN250 QNH2994INS TEMPO 1715/1719 VRB15G25KT 4800 -SHRA BKN020CB BECMG 1718/1719 09012G18KT VCSH SCT035CB SCT055 BKN250 QNH2989INS TEMPO 1719/1723 VRB15G25KT 3200 SHRA BKN015CB OVC055 BECMG 1722/1723 10014G20KT 9999 NSW SCT035 SCT060 BKN250 QNH2990INS BECMG 1803/1805 VRB06KT 9999 FEW020 SCT040 QNH2993INS TEMPO 1810/1814 4800 BR BKN015 T32/1719Z T24/1811Z COR 1517